createdAt,value
2022-11-02T00:00:03.611Z,1007.51
2022-11-02T00:01:03.519Z,1007.58
2022-11-02T00:02:03.281Z,1007.52
2022-11-02T00:03:03.252Z,1007.44
2022-11-02T00:04:02.899Z,1007.44
2022-11-02T00:05:03.034Z,1007.44
2022-11-02T00:06:02.509Z,1007.55
2022-11-02T00:07:02.403Z,1007.43
2022-11-02T00:08:02.445Z,1007.49
2022-11-02T00:09:02.281Z,1007.44
2022-11-02T00:10:02.351Z,1007.46
2022-11-02T00:11:02.501Z,1007.42
2022-11-02T00:12:02.311Z,1007.53
2022-11-02T00:13:03.001Z,1007.47
2022-11-02T00:14:02.500Z,1007.50
2022-11-02T00:15:02.918Z,1007.46
2022-11-02T00:16:02.371Z,1007.40
2022-11-02T00:17:02.083Z,1007.40
2022-11-02T00:18:02.049Z,1007.39
2022-11-02T00:19:01.916Z,1007.47
2022-11-02T00:20:01.876Z,1007.43
2022-11-02T00:21:01.858Z,1007.45
2022-11-02T00:22:02.904Z,1007.38
2022-11-02T00:23:03.315Z,1007.42
2022-11-02T00:24:02.491Z,1007.47
2022-11-02T00:25:02.476Z,1007.47
2022-11-02T00:26:02.836Z,1007.45
2022-11-02T00:27:01.751Z,1007.52
2022-11-02T00:28:02.193Z,1007.50
2022-11-02T00:29:02.175Z,1007.42
2022-11-02T00:30:02.030Z,1007.43
2022-11-02T00:31:01.778Z,1007.41
2022-11-02T00:32:02.383Z,1007.43
2022-11-02T00:33:03.271Z,1007.44
2022-11-02T00:34:02.584Z,1007.39
2022-11-02T00:35:02.356Z,1007.35
2022-11-02T00:36:02.842Z,1007.43
2022-11-02T00:37:02.827Z,1007.45
2022-11-02T00:38:03.358Z,1007.43
2022-11-02T00:39:02.526Z,1007.38
2022-11-02T00:40:02.745Z,1007.35
2022-11-02T00:41:02.923Z,1007.33
2022-11-02T00:42:02.567Z,1007.35
2022-11-02T00:43:02.394Z,1007.51
2022-11-02T00:44:02.674Z,1007.56
2022-11-02T00:45:02.889Z,1007.53
2022-11-02T00:46:03.001Z,1007.53
2022-11-02T00:47:02.985Z,1007.48
2022-11-02T00:48:03.070Z,1007.49
2022-11-02T00:49:02.910Z,1007.49
2022-11-02T00:50:02.470Z,1007.52
2022-11-02T00:51:02.852Z,1007.47
2022-11-02T00:52:03.047Z,1007.49
2022-11-02T00:53:03.135Z,1007.52
2022-11-02T00:54:02.577Z,1007.51
2022-11-02T00:55:02.993Z,1007.45
2022-11-02T00:56:03.034Z,1007.49
2022-11-02T00:58:02.211Z,1007.54
2022-11-02T00:59:02.251Z,1007.51
2022-11-02T01:00:02.260Z,1007.53
2022-11-02T01:01:01.963Z,1007.57
2022-11-02T01:02:03.055Z,1007.60
2022-11-02T01:03:02.676Z,1007.50
2022-11-02T01:04:02.981Z,1007.57
2022-11-02T01:05:02.517Z,1007.56
2022-11-02T01:06:02.846Z,1007.55
2022-11-02T01:07:02.989Z,1007.56
2022-11-02T01:08:03.356Z,1007.57
2022-11-02T01:09:02.709Z,1007.55
2022-11-02T01:10:03.054Z,1007.48
2022-11-02T01:11:03.050Z,1007.54
2022-11-02T01:12:03.010Z,1007.51
2022-11-02T01:13:02.949Z,1007.50
2022-11-02T01:14:02.805Z,1007.61
2022-11-02T01:15:03.358Z,1007.48
2022-11-02T01:16:03.078Z,1007.54
2022-11-02T01:17:03.052Z,1007.58
2022-11-02T01:18:03.542Z,1007.58
2022-11-02T01:19:03.056Z,1007.62
2022-11-02T01:20:03.306Z,1007.54
2022-11-02T01:21:03.116Z,1007.60
2022-11-02T01:22:03.419Z,1007.59
2022-11-02T01:23:03.111Z,1007.57
2022-11-02T01:24:02.950Z,1007.57
2022-11-02T01:25:03.169Z,1007.49
2022-11-02T01:26:03.479Z,1007.52
2022-11-02T01:27:02.732Z,1007.53
2022-11-02T01:28:02.543Z,1007.47
2022-11-02T01:29:02.531Z,1007.51
2022-11-02T01:30:02.803Z,1007.50
2022-11-02T01:31:02.454Z,1007.45
2022-11-02T01:32:02.724Z,1007.52
2022-11-02T01:33:03.213Z,1007.50
2022-11-02T01:34:03.046Z,1007.52
2022-11-02T01:35:03.396Z,1007.48
2022-11-02T01:36:02.923Z,1007.50
2022-11-02T01:37:02.520Z,1007.51
2022-11-02T01:38:02.994Z,1007.53
2022-11-02T01:39:02.435Z,1007.54
2022-11-02T01:40:02.758Z,1007.51
2022-11-02T01:41:02.496Z,1007.56
2022-11-02T01:42:03.389Z,1007.55
2022-11-02T01:43:02.857Z,1007.52
2022-11-02T01:44:03.264Z,1007.55
2022-11-02T01:45:02.923Z,1007.46
2022-11-02T01:46:03.170Z,1007.45
2022-11-02T01:47:02.778Z,1007.46
2022-11-02T01:48:03.253Z,1007.48
2022-11-02T01:49:02.761Z,1007.51
2022-11-02T01:50:02.909Z,1007.43
2022-11-02T01:51:02.428Z,1007.48
2022-11-02T01:52:02.647Z,1007.49
2022-11-02T01:53:02.851Z,1007.49
2022-11-02T01:54:02.856Z,1007.51
2022-11-02T01:55:02.649Z,1007.51
2022-11-02T01:56:02.863Z,1007.49
2022-11-02T01:57:03.172Z,1007.50
2022-11-02T01:58:03.345Z,1007.54
2022-11-02T01:59:03.184Z,1007.46
2022-11-02T02:00:03.201Z,1007.45
2022-11-02T02:01:03.351Z,1007.50
2022-11-02T02:02:02.427Z,1007.44
2022-11-02T02:03:02.585Z,1007.47
2022-11-02T02:04:02.323Z,1007.52
2022-11-02T02:05:02.391Z,1007.42
2022-11-02T02:06:02.263Z,1007.41
2022-11-02T02:07:02.589Z,1007.48
2022-11-02T02:08:02.805Z,1007.45
2022-11-02T02:09:02.941Z,1007.49
2022-11-02T02:10:02.621Z,1007.53
2022-11-02T02:11:02.688Z,1007.53
2022-11-02T02:12:03.019Z,1007.61
2022-11-02T02:13:02.910Z,1007.61
2022-11-02T02:14:03.354Z,1007.64
2022-11-02T02:15:03.088Z,1007.69
2022-11-02T02:16:02.928Z,1007.68
2022-11-02T02:17:02.831Z,1007.64
2022-11-02T02:18:02.633Z,1007.63
2022-11-02T02:19:02.619Z,1007.73
2022-11-02T02:20:02.658Z,1007.72
2022-11-02T02:21:02.497Z,1007.62
2022-11-02T02:22:02.250Z,1007.70
2022-11-02T02:23:01.976Z,1007.68
2022-11-02T02:24:02.115Z,1007.63
2022-11-02T02:25:02.338Z,1007.65
2022-11-02T02:26:02.608Z,1007.61
2022-11-02T02:27:02.600Z,1007.60
2022-11-02T02:28:03.005Z,1007.65
2022-11-02T02:29:02.678Z,1007.68
2022-11-02T02:30:02.885Z,1007.62
2022-11-02T02:31:02.797Z,1007.63
2022-11-02T02:32:02.590Z,1007.65
2022-11-02T02:33:02.411Z,1007.62
2022-11-02T02:34:02.608Z,1007.60
2022-11-02T02:35:02.729Z,1007.58
2022-11-02T02:36:03.024Z,1007.57
2022-11-02T02:37:03.311Z,1007.63
2022-11-02T02:38:03.018Z,1007.54
2022-11-02T02:39:02.811Z,1007.58
2022-11-02T02:40:03.451Z,1007.60
2022-11-02T02:41:03.015Z,1007.52
2022-11-02T02:42:02.530Z,1007.50
2022-11-02T02:43:02.540Z,1007.49
2022-11-02T02:44:02.624Z,1007.56
2022-11-02T02:45:02.482Z,1007.57
2022-11-02T02:46:02.651Z,1007.58
2022-11-02T02:47:02.806Z,1007.53
2022-11-02T02:48:02.748Z,1007.55
2022-11-02T02:49:02.774Z,1007.57
2022-11-02T02:50:02.952Z,1007.54
2022-11-02T02:51:02.346Z,1007.53
2022-11-02T02:52:03.374Z,1007.55
2022-11-02T02:53:03.197Z,1007.54
2022-11-02T02:54:03.131Z,1007.54
2022-11-02T02:55:03.025Z,1007.57
2022-11-02T02:56:03.274Z,1007.55
2022-11-02T02:57:02.273Z,1007.56
2022-11-02T02:58:02.489Z,1007.54
2022-11-02T02:59:02.540Z,1007.52
2022-11-02T03:00:02.276Z,1007.50
2022-11-02T03:01:02.842Z,1007.59
2022-11-02T03:02:03.496Z,1007.55
2022-11-02T03:03:03.333Z,1007.56
2022-11-02T03:04:03.173Z,1007.52
2022-11-02T03:05:03.247Z,1007.58
2022-11-02T03:06:03.262Z,1007.55
2022-11-02T03:07:02.743Z,1007.55
2022-11-02T03:08:02.727Z,1007.55
2022-11-02T03:09:02.577Z,1007.53
2022-11-02T03:10:02.383Z,1007.53
2022-11-02T03:11:02.544Z,1007.49
2022-11-02T03:12:02.855Z,1007.51
2022-11-02T03:13:02.645Z,1007.46
2022-11-02T03:14:02.795Z,1007.47
2022-11-02T03:15:02.391Z,1007.46
2022-11-02T03:16:02.687Z,1007.47
2022-11-02T03:17:03.123Z,1007.45
2022-11-02T03:18:03.202Z,1007.47
2022-11-02T03:19:02.751Z,1007.45
2022-11-02T03:20:02.834Z,1007.51
2022-11-02T03:21:03.400Z,1007.53
2022-11-02T03:22:02.248Z,1007.58
2022-11-02T03:23:02.215Z,1007.55
2022-11-02T03:24:02.574Z,1007.53
2022-11-02T03:25:02.627Z,1007.47
2022-11-02T03:26:02.836Z,1007.54
2022-11-02T03:27:03.414Z,1007.61
2022-11-02T03:28:03.681Z,1007.52
2022-11-02T03:29:03.484Z,1007.53
2022-11-02T03:30:03.337Z,1007.66
2022-11-02T03:31:03.142Z,1007.64
2022-11-02T03:32:03.435Z,1007.70
2022-11-02T03:33:03.191Z,1007.64
2022-11-02T03:34:03.540Z,1007.72
2022-11-02T03:35:03.156Z,1007.73
2022-11-02T03:36:02.938Z,1007.72
2022-11-02T03:37:02.224Z,1007.72
2022-11-02T03:38:03.190Z,1007.73
2022-11-02T03:39:02.390Z,1007.80
2022-11-02T03:40:02.531Z,1007.78
2022-11-02T03:41:02.757Z,1007.73
2022-11-02T03:42:02.709Z,1007.75
2022-11-02T03:43:02.255Z,1007.82
2022-11-02T03:44:02.718Z,1007.84
2022-11-02T03:45:02.716Z,1007.81
2022-11-02T03:46:02.733Z,1007.84
2022-11-02T03:47:02.675Z,1007.84
2022-11-02T03:48:03.177Z,1007.72
2022-11-02T03:49:06.069Z,1007.82
2022-11-02T03:50:02.995Z,1007.78
2022-11-02T03:51:02.606Z,1007.84
2022-11-02T03:52:03.198Z,1007.78
2022-11-02T03:53:03.045Z,1007.83
2022-11-02T03:54:03.540Z,1007.88
2022-11-02T03:55:03.027Z,1007.86
2022-11-02T03:56:03.127Z,1007.93
2022-11-02T03:58:03.494Z,1007.95
2022-11-02T03:59:03.021Z,1007.94
2022-11-02T04:00:03.185Z,1007.94
2022-11-02T04:01:03.163Z,1007.94
2022-11-02T04:02:03.070Z,1007.98
2022-11-02T04:03:02.940Z,1007.98
2022-11-02T04:04:02.642Z,1008.00
2022-11-02T04:05:02.768Z,1007.98
2022-11-02T04:06:02.704Z,1008.00
2022-11-02T04:07:02.785Z,1008.01
2022-11-02T04:08:02.546Z,1008.01
2022-11-02T04:09:02.727Z,1008.07
2022-11-02T04:10:02.270Z,1008.04
2022-11-02T04:11:02.690Z,1008.02
2022-11-02T04:12:02.869Z,1008.09
2022-11-02T04:13:02.732Z,1008.09
2022-11-02T04:14:02.666Z,1008.06
2022-11-02T04:15:02.480Z,1008.07
2022-11-02T04:16:02.753Z,1008.00
2022-11-02T04:17:02.935Z,1008.07
2022-11-02T04:18:03.210Z,1008.09
2022-11-02T04:19:03.027Z,1008.13
2022-11-02T04:20:03.217Z,1008.16
2022-11-02T04:21:03.217Z,1008.13
2022-11-02T04:22:02.928Z,1008.16
2022-11-02T04:23:03.062Z,1008.14
2022-11-02T04:24:03.345Z,1008.20
2022-11-02T04:25:03.187Z,1008.25
2022-11-02T04:26:03.495Z,1008.19
2022-11-02T04:27:02.876Z,1008.24
2022-11-02T04:28:02.901Z,1008.23
2022-11-02T04:29:02.385Z,1008.23
2022-11-02T04:30:02.578Z,1008.29
2022-11-02T04:31:02.624Z,1008.27
2022-11-02T04:32:03.483Z,1008.27
2022-11-02T04:33:03.079Z,1008.26
2022-11-02T04:34:03.147Z,1008.25
2022-11-02T04:35:03.089Z,1008.23
2022-11-02T04:36:03.207Z,1008.27
2022-11-02T04:37:02.867Z,1008.27
2022-11-02T04:38:03.118Z,1008.34
2022-11-02T04:39:02.536Z,1008.28
2022-11-02T04:40:02.508Z,1008.34
2022-11-02T04:41:03.012Z,1008.27
2022-11-02T04:42:03.214Z,1008.36
2022-11-02T04:43:03.131Z,1008.39
2022-11-02T04:44:03.212Z,1008.31
2022-11-02T04:45:02.863Z,1008.42
2022-11-02T04:46:03.443Z,1008.35
2022-11-02T04:47:02.685Z,1008.40
2022-11-02T04:48:02.934Z,1008.39
2022-11-02T04:49:02.359Z,1008.43
2022-11-02T04:50:02.508Z,1008.40
2022-11-02T04:51:02.468Z,1008.44
2022-11-02T04:52:03.237Z,1008.46
2022-11-02T04:53:02.675Z,1008.43
2022-11-02T04:54:02.711Z,1008.46
2022-11-02T04:55:02.782Z,1008.53
2022-11-02T04:56:02.686Z,1008.49
2022-11-02T04:57:02.840Z,1008.58
2022-11-02T04:58:02.496Z,1008.62
2022-11-02T04:59:02.533Z,1008.63
2022-11-02T05:00:02.692Z,1008.64
2022-11-02T05:01:02.763Z,1008.59
2022-11-02T05:02:03.616Z,1008.68
2022-11-02T05:03:05.692Z,1008.65
2022-11-02T05:04:02.983Z,1008.62
2022-11-02T05:05:03.279Z,1008.64
2022-11-02T05:06:02.990Z,1008.62
2022-11-02T05:07:03.426Z,1008.67
2022-11-02T05:08:03.748Z,1008.72
2022-11-02T05:09:03.835Z,1008.70
2022-11-02T05:10:03.331Z,1008.73
2022-11-02T05:11:03.592Z,1008.70
2022-11-02T05:12:02.701Z,1008.71
2022-11-02T05:13:03.263Z,1008.70
2022-11-02T05:14:03.212Z,1008.69
2022-11-02T05:15:03.364Z,1008.67
2022-11-02T05:16:02.975Z,1008.67
2022-11-02T05:17:03.543Z,1008.64
2022-11-02T05:18:04.135Z,1008.72
2022-11-02T05:19:05.607Z,1008.74
2022-11-02T05:20:03.261Z,1008.69
2022-11-02T05:21:03.138Z,1008.71
2022-11-02T05:22:03.479Z,1008.74
2022-11-02T05:23:03.815Z,1008.73
2022-11-02T05:24:03.018Z,1008.76
2022-11-02T05:25:03.458Z,1008.78
2022-11-02T05:26:03.339Z,1008.82
2022-11-02T05:27:03.847Z,1008.79
2022-11-02T05:28:03.976Z,1008.80
2022-11-02T05:29:03.410Z,1008.78
2022-11-02T05:30:03.333Z,1008.77
2022-11-02T05:31:03.514Z,1008.78
2022-11-02T05:32:03.473Z,1008.83
2022-11-02T05:33:03.910Z,1008.87
2022-11-02T05:34:03.457Z,1008.87
2022-11-02T05:35:04.004Z,1008.89
2022-11-02T05:36:03.750Z,1008.93
2022-11-02T05:37:02.441Z,1008.90
2022-11-02T05:38:02.553Z,1008.85
2022-11-02T05:39:02.810Z,1008.91
2022-11-02T05:40:02.857Z,1008.90
2022-11-02T05:41:03.037Z,1008.96
2022-11-02T05:42:03.133Z,1009.00
2022-11-02T05:43:03.311Z,1009.02
2022-11-02T05:44:03.058Z,1009.04
2022-11-02T05:45:02.897Z,1009.06
2022-11-02T05:46:02.960Z,1009.02
2022-11-02T05:47:03.228Z,1009.00
2022-11-02T05:48:03.268Z,1009.02
2022-11-02T05:49:02.956Z,1009.01
2022-11-02T05:50:02.799Z,1008.99
2022-11-02T05:51:03.155Z,1009.00
2022-11-02T05:52:03.841Z,1008.98
2022-11-02T05:53:03.497Z,1008.98
2022-11-02T05:54:03.502Z,1008.97
2022-11-02T05:55:03.442Z,1008.96
2022-11-02T05:56:03.769Z,1009.02
2022-11-02T05:57:03.826Z,1009.01
2022-11-02T05:58:03.451Z,1009.06
2022-11-02T05:59:03.759Z,1009.04
2022-11-02T06:00:03.710Z,1009.08
2022-11-02T06:01:03.923Z,1009.06
2022-11-02T06:02:03.457Z,1009.11
2022-11-02T06:03:03.615Z,1009.09
2022-11-02T06:04:03.392Z,1009.13
2022-11-02T06:05:03.376Z,1009.13
2022-11-02T06:06:03.479Z,1009.18
2022-11-02T06:07:02.300Z,1009.16
2022-11-02T06:08:02.601Z,1009.17
2022-11-02T06:09:06.905Z,1009.22
2022-11-02T06:10:02.237Z,1009.19
2022-11-02T06:11:02.730Z,1009.24
2022-11-02T06:12:02.813Z,1009.27
2022-11-02T06:13:03.392Z,1009.22
2022-11-02T06:14:03.331Z,1009.32
2022-11-02T06:15:02.838Z,1009.33
2022-11-02T06:16:03.250Z,1009.40
2022-11-02T06:17:02.314Z,1009.32
2022-11-02T06:18:02.297Z,1009.35
2022-11-02T06:19:02.943Z,1009.36
2022-11-02T06:20:02.493Z,1009.37
2022-11-02T06:21:02.256Z,1009.43
2022-11-02T06:22:02.812Z,1009.48
2022-11-02T06:23:03.296Z,1009.40
2022-11-02T06:24:03.265Z,1009.55
2022-11-02T06:25:02.869Z,1009.45
2022-11-02T06:26:02.934Z,1009.50
2022-11-02T06:27:02.234Z,1009.45
2022-11-02T06:28:02.553Z,1009.52
2022-11-02T06:29:02.454Z,1009.56
2022-11-02T06:30:02.463Z,1009.59
2022-11-02T06:31:02.512Z,1009.60
2022-11-02T06:32:02.922Z,1009.56
2022-11-02T06:33:06.918Z,1009.63
2022-11-02T06:34:03.381Z,1009.67
2022-11-02T06:35:03.196Z,1009.63
2022-11-02T06:36:03.333Z,1009.64
2022-11-02T06:37:03.138Z,1009.68
2022-11-02T06:38:03.136Z,1009.68
2022-11-02T06:39:03.299Z,1009.70
2022-11-02T06:40:02.959Z,1009.71
2022-11-02T06:41:03.545Z,1009.75
2022-11-02T06:42:02.379Z,1009.74
2022-11-02T06:43:18.032Z,1009.79
2022-11-02T06:44:02.205Z,1009.79
2022-11-02T06:45:02.409Z,1009.80
2022-11-02T06:46:02.570Z,1009.93
2022-11-02T06:47:02.785Z,1009.92
2022-11-02T06:48:02.884Z,1009.91
2022-11-02T06:49:02.478Z,1009.92
2022-11-02T06:50:02.906Z,1009.97
2022-11-02T06:51:02.451Z,1010.01
2022-11-02T06:52:03.040Z,1010.04
2022-11-02T06:53:03.169Z,1009.99
2022-11-02T06:54:08.274Z,1009.99
2022-11-02T06:55:02.577Z,1010.00
2022-11-02T06:56:03.033Z,1010.10
2022-11-02T06:57:03.064Z,1010.09
2022-11-02T06:58:03.299Z,1010.08
2022-11-02T06:59:03.383Z,1010.09
2022-11-02T07:00:03.538Z,1010.07
2022-11-02T07:01:03.615Z,1010.06
2022-11-02T07:02:03.544Z,1010.09
2022-11-02T07:03:03.630Z,1010.08
2022-11-02T07:04:03.456Z,1010.07
2022-11-02T07:05:03.377Z,1010.14
2022-11-02T07:06:03.536Z,1010.13
2022-11-02T07:07:03.391Z,1010.14
2022-11-02T07:08:03.726Z,1010.14
2022-11-02T07:09:03.129Z,1010.16
2022-11-02T07:10:03.591Z,1010.17
2022-11-02T07:11:03.684Z,1010.19
2022-11-02T07:12:03.492Z,1010.21
2022-11-02T07:13:03.964Z,1010.26
2022-11-02T07:14:03.308Z,1010.28
2022-11-02T07:15:03.361Z,1010.28
2022-11-02T07:16:03.663Z,1010.25
2022-11-02T07:17:02.717Z,1010.32
2022-11-02T07:18:02.882Z,1010.36
2022-11-02T07:19:03.091Z,1010.43
2022-11-02T07:20:03.185Z,1010.34
2022-11-02T07:21:02.854Z,1010.40
2022-11-02T07:22:03.309Z,1010.43
2022-11-02T07:23:03.783Z,1010.38
2022-11-02T07:24:03.329Z,1010.43
2022-11-02T07:25:03.491Z,1010.40
2022-11-02T07:26:03.112Z,1010.42
2022-11-02T07:27:02.815Z,1010.45
2022-11-02T07:28:02.879Z,1010.43
2022-11-02T07:29:03.052Z,1010.47
2022-11-02T07:30:02.610Z,1010.48
2022-11-02T07:31:02.666Z,1010.46
2022-11-02T07:32:03.403Z,1010.50
2022-11-02T07:33:03.968Z,1010.49
2022-11-02T07:34:03.700Z,1010.46
2022-11-02T07:35:03.125Z,1010.45
2022-11-02T07:36:03.770Z,1010.51
2022-11-02T07:37:03.586Z,1010.45
2022-11-02T07:38:03.440Z,1010.49
2022-11-02T07:39:03.317Z,1010.47
2022-11-02T07:40:03.330Z,1010.44
2022-11-02T07:41:03.720Z,1010.45
2022-11-02T07:42:02.565Z,1010.55
2022-11-02T07:43:02.717Z,1010.52
2022-11-02T07:44:02.683Z,1010.52
2022-11-02T07:45:02.846Z,1010.47
2022-11-02T07:46:02.944Z,1010.54
2022-11-02T07:47:03.080Z,1010.49
2022-11-02T07:48:03.327Z,1010.53
2022-11-02T07:49:03.436Z,1010.58
2022-11-02T07:50:02.838Z,1010.56
2022-11-02T07:51:03.157Z,1010.65
2022-11-02T07:52:03.360Z,1010.64
2022-11-02T07:53:03.836Z,1010.70
2022-11-02T07:54:03.848Z,1010.68
2022-11-02T07:55:03.325Z,1010.70
2022-11-02T07:56:03.863Z,1010.75
2022-11-02T07:57:02.891Z,1010.70
2022-11-02T07:58:02.642Z,1010.74
2022-11-02T07:59:02.674Z,1010.76
2022-11-02T08:00:02.484Z,1010.80
2022-11-02T08:01:02.521Z,1010.79
2022-11-02T08:02:03.405Z,1010.75
2022-11-02T08:03:03.613Z,1010.81
2022-11-02T08:04:03.174Z,1010.83
2022-11-02T08:05:03.062Z,1010.85
2022-11-02T08:06:03.160Z,1010.82
2022-11-02T08:07:03.227Z,1010.87
2022-11-02T08:08:03.501Z,1010.99
2022-11-02T08:09:02.863Z,1010.95
2022-11-02T08:10:03.018Z,1010.98
2022-11-02T08:11:03.153Z,1010.97
2022-11-02T08:12:03.517Z,1010.93
2022-11-02T08:13:03.305Z,1010.92
2022-11-02T08:14:03.238Z,1010.99
2022-11-02T08:15:07.410Z,1010.93
2022-11-02T08:16:03.130Z,1011.00
2022-11-02T08:17:02.833Z,1011.04
2022-11-02T08:18:03.004Z,1011.01
2022-11-02T08:19:02.295Z,1011.05
2022-11-02T08:20:02.289Z,1011.05
2022-11-02T08:21:02.677Z,1011.07
2022-11-02T08:22:02.705Z,1011.06
2022-11-02T08:23:02.920Z,1011.09
2022-11-02T08:24:02.668Z,1011.10
2022-11-02T08:25:03.089Z,1011.06
2022-11-02T08:26:03.156Z,1011.03
2022-11-02T08:27:02.937Z,1011.11
2022-11-02T08:28:02.776Z,1011.08
2022-11-02T08:29:02.864Z,1011.15
2022-11-02T08:30:02.899Z,1011.06
2022-11-02T08:31:02.844Z,1011.11
2022-11-02T08:32:02.906Z,1011.12
2022-11-02T08:33:02.688Z,1011.09
2022-11-02T08:34:03.168Z,1011.12
2022-11-02T08:35:02.835Z,1011.11
2022-11-02T08:36:02.586Z,1011.21
2022-11-02T08:37:03.466Z,1011.25
2022-11-02T08:38:04.043Z,1011.21
2022-11-02T08:39:03.443Z,1011.21
2022-11-02T08:40:03.217Z,1011.20
2022-11-02T08:41:03.675Z,1011.25
2022-11-02T08:42:02.475Z,1011.28
2022-11-02T08:43:02.570Z,1011.34
2022-11-02T08:44:02.621Z,1011.36
2022-11-02T08:45:03.033Z,1011.33
2022-11-02T08:46:14.886Z,1011.37
2022-11-02T08:47:04.291Z,1011.36
2022-11-02T08:48:02.888Z,1011.37
2022-11-02T08:49:03.117Z,1011.34
2022-11-02T08:50:03.117Z,1011.32
2022-11-02T08:51:02.623Z,1011.34
2022-11-02T08:52:03.107Z,1011.37
2022-11-02T08:53:03.323Z,1011.30
2022-11-02T08:54:03.698Z,1011.31
2022-11-02T08:55:03.393Z,1011.35
2022-11-02T08:56:03.727Z,1011.32
2022-11-02T08:57:02.613Z,1011.40
2022-11-02T08:58:03.498Z,1011.33
2022-11-02T08:59:03.086Z,1011.33
2022-11-02T09:00:03.128Z,1011.30
2022-11-02T09:01:02.829Z,1011.41
2022-11-02T09:02:02.807Z,1011.40
2022-11-02T09:03:03.036Z,1011.33
2022-11-02T09:04:02.938Z,1011.29
2022-11-02T09:05:02.776Z,1011.37
2022-11-02T09:06:03.265Z,1011.32
2022-11-02T09:07:02.215Z,1011.35
2022-11-02T09:08:02.929Z,1011.37
2022-11-02T09:09:02.239Z,1011.35
2022-11-02T09:10:02.647Z,1011.36
2022-11-02T09:11:02.570Z,1011.39
2022-11-02T09:12:03.270Z,1011.38
2022-11-02T09:13:03.124Z,1011.36
2022-11-02T09:14:02.838Z,1011.45
2022-11-02T09:15:03.050Z,1011.48
2022-11-02T09:16:03.034Z,1011.46
2022-11-02T09:17:03.133Z,1011.52
2022-11-02T09:18:03.678Z,1011.59
2022-11-02T09:19:03.540Z,1011.61
2022-11-02T09:20:03.390Z,1011.58
2022-11-02T09:21:03.541Z,1011.61
2022-11-02T09:22:05.735Z,1011.63
2022-11-02T09:23:03.014Z,1011.59
2022-11-02T09:24:03.143Z,1011.65
2022-11-02T09:25:02.922Z,1011.68
2022-11-02T09:26:02.595Z,1011.64
2022-11-02T09:27:03.645Z,1011.61
2022-11-02T09:28:03.545Z,1011.65
2022-11-02T09:29:03.078Z,1011.62
2022-11-02T09:30:03.215Z,1011.62
2022-11-02T09:31:06.065Z,1011.61
2022-11-02T09:32:02.868Z,1011.67
2022-11-02T09:33:03.286Z,1011.67
2022-11-02T09:34:02.681Z,1011.67
2022-11-02T09:35:03.330Z,1011.73
2022-11-02T09:36:03.348Z,1011.71
2022-11-02T09:37:03.143Z,1011.74
2022-11-02T09:38:03.365Z,1011.65
2022-11-02T09:39:03.418Z,1011.73
2022-11-02T09:40:03.167Z,1011.70
2022-11-02T09:41:02.949Z,1011.71
2022-11-02T09:42:03.627Z,1011.72
2022-11-02T09:43:03.765Z,1011.73
2022-11-02T09:44:03.392Z,1011.71
2022-11-02T09:45:03.251Z,1011.81
2022-11-02T09:46:03.387Z,1011.83
2022-11-02T09:47:55.899Z,1011.80
2022-11-02T09:48:16.815Z,1011.86
2022-11-02T09:49:02.871Z,1011.76
2022-11-02T09:50:02.891Z,1011.80
2022-11-02T09:51:03.270Z,1011.87
2022-11-02T09:52:02.519Z,1011.85
2022-11-02T09:53:02.847Z,1011.89
2022-11-02T09:54:02.814Z,1011.82
2022-11-02T09:55:02.616Z,1011.82
2022-11-02T09:56:02.853Z,1011.75
2022-11-02T09:57:02.938Z,1011.80
2022-11-02T09:58:03.044Z,1011.75
2022-11-02T09:59:03.155Z,1011.75
2022-11-02T10:00:02.811Z,1011.75
2022-11-02T10:01:02.684Z,1011.73
2022-11-02T10:02:02.316Z,1011.82
2022-11-02T10:03:02.044Z,1011.83
2022-11-02T10:04:02.371Z,1011.88
2022-11-02T10:05:02.368Z,1011.85
2022-11-02T10:06:02.552Z,1011.84
2022-11-02T10:07:02.276Z,1011.86
2022-11-02T10:08:01.776Z,1011.86
2022-11-02T10:09:02.267Z,1011.82
2022-11-02T10:10:02.214Z,1011.84
2022-11-02T10:11:07.718Z,1011.82
2022-11-02T10:12:02.109Z,1011.81
2022-11-02T10:13:01.849Z,1011.86
2022-11-02T10:14:02.166Z,1011.86
2022-11-02T10:15:01.814Z,1011.85
2022-11-02T10:16:02.348Z,1011.88
2022-11-02T10:17:02.228Z,1011.82
2022-11-02T10:18:01.971Z,1011.88
2022-11-02T10:19:02.238Z,1011.84
2022-11-02T10:20:02.480Z,1011.88
2022-11-02T10:21:02.192Z,1011.86
2022-11-02T10:22:02.395Z,1011.88
2022-11-02T10:23:02.880Z,1011.94
2022-11-02T10:24:02.196Z,1011.95
2022-11-02T10:25:01.990Z,1011.90
2022-11-02T10:26:02.376Z,1011.94
2022-11-02T10:27:02.307Z,1011.91
2022-11-02T10:28:02.802Z,1011.94
2022-11-02T10:29:02.172Z,1011.90
2022-11-02T10:30:02.787Z,1011.97
2022-11-02T10:31:02.305Z,1011.95
2022-11-02T10:32:02.867Z,1012.02
2022-11-02T10:33:03.300Z,1011.98
2022-11-02T10:34:02.917Z,1011.95
2022-11-02T10:35:25.307Z,1011.97
2022-11-02T10:36:19.330Z,1011.92
2022-11-02T10:37:02.514Z,1011.91
2022-11-02T10:38:02.941Z,1011.92
2022-11-02T10:39:02.299Z,1011.88
2022-11-02T10:40:02.311Z,1011.85
2022-11-02T10:41:02.121Z,1011.85
2022-11-02T10:42:02.535Z,1011.83
2022-11-02T10:43:02.113Z,1011.84
2022-11-02T10:44:02.163Z,1011.83
2022-11-02T10:45:02.300Z,1011.78
2022-11-02T10:46:02.401Z,1011.75
2022-11-02T10:47:03.151Z,1011.75
2022-11-02T10:48:03.207Z,1011.79
2022-11-02T10:49:02.648Z,1011.83
2022-11-02T10:50:06.885Z,1011.82
2022-11-02T10:51:02.939Z,1011.83
2022-11-02T10:52:02.510Z,1011.84
2022-11-02T10:53:20.341Z,1011.88
2022-11-02T10:54:02.207Z,1011.85
2022-11-02T10:55:02.125Z,1011.86
2022-11-02T10:56:02.488Z,1011.82
2022-11-02T10:57:02.522Z,1011.87
2022-11-02T10:58:02.626Z,1011.77
2022-11-02T10:59:02.565Z,1011.84
2022-11-02T11:00:02.612Z,1011.83
2022-11-02T11:01:02.459Z,1011.85
2022-11-02T11:02:03.384Z,1011.79
2022-11-02T11:03:03.252Z,1011.83
2022-11-02T11:04:03.399Z,1011.80
2022-11-02T11:05:03.133Z,1011.91
2022-11-02T11:06:03.231Z,1011.86
2022-11-02T11:07:02.821Z,1011.88
2022-11-02T11:08:03.531Z,1011.88
2022-11-02T11:09:02.968Z,1011.90
2022-11-02T11:10:03.389Z,1011.86
2022-11-02T11:11:03.483Z,1011.86
2022-11-02T11:12:03.761Z,1011.80
2022-11-02T11:13:04.081Z,1011.88
2022-11-02T11:16:03.783Z,1011.81
2022-11-02T11:20:05.979Z,1011.80
2022-11-02T11:21:03.457Z,1011.84
2022-11-02T11:22:03.227Z,1011.77
2022-11-02T11:23:03.608Z,1011.76
2022-11-02T11:24:03.194Z,1011.76
2022-11-02T11:25:02.881Z,1011.77
2022-11-02T11:26:03.299Z,1011.75
2022-11-02T11:27:03.766Z,1011.77
2022-11-02T11:28:04.262Z,1011.78
2022-11-02T11:29:03.777Z,1011.74
2022-11-02T11:30:03.241Z,1011.76
2022-11-02T11:31:03.355Z,1011.75
2022-11-02T11:32:03.435Z,1011.80
2022-11-02T11:33:03.259Z,1011.75
2022-11-02T11:34:03.348Z,1011.76
2022-11-02T11:35:03.199Z,1011.73
2022-11-02T11:36:03.484Z,1011.74
2022-11-02T11:37:03.858Z,1011.82
2022-11-02T11:38:03.689Z,1011.85
2022-11-02T11:39:03.803Z,1011.82
2022-11-02T11:40:03.818Z,1011.85
2022-11-02T11:41:03.843Z,1011.83
2022-11-02T11:42:02.670Z,1011.76
2022-11-02T11:43:03.268Z,1011.82
2022-11-02T11:44:02.961Z,1011.76
2022-11-02T11:45:02.927Z,1011.80
2022-11-02T11:46:06.246Z,1011.80
2022-11-02T11:47:03.332Z,1011.81
2022-11-02T11:48:03.750Z,1011.73
2022-11-02T11:49:04.021Z,1011.80
2022-11-02T11:50:17.706Z,1011.77
2022-11-02T11:51:03.638Z,1011.79
2022-11-02T11:52:03.895Z,1011.80
2022-11-02T11:53:03.474Z,1011.82
2022-11-02T11:54:03.042Z,1011.80
2022-11-02T11:55:03.420Z,1011.80
2022-11-02T11:56:03.489Z,1011.78
2022-11-02T11:57:03.524Z,1011.79
2022-11-02T11:58:03.419Z,1011.73
2022-11-02T11:59:02.953Z,1011.72
2022-11-02T12:00:03.137Z,1011.70
2022-11-02T12:01:09.052Z,1011.68
2022-11-02T12:02:04.043Z,1011.59
2022-11-02T12:03:02.803Z,1011.61
2022-11-02T12:04:02.587Z,1011.66
2022-11-02T12:05:02.428Z,1011.59
2022-11-02T12:06:02.260Z,1011.51
2022-11-02T12:07:02.360Z,1011.63
2022-11-02T12:08:03.314Z,1011.56
2022-11-02T12:09:04.630Z,1011.61
2022-11-02T12:10:03.016Z,1011.64
2022-11-02T12:11:03.123Z,1011.66
2022-11-02T12:12:03.099Z,1011.66